Adams Gardens, Texas
Current Conditions -  °F | °C
As of 2:27 AM on Thursday 27 Nov 2014 (Local Time) from KHRL Reporting Station
Haze Haze  
Wind Chill: 48°   Ceiling: Unl
Heat Index: 48°   Visibility: 6mi
Dew Point: 48°   Wind: 3mph
Humidity: 100%   Direction: 150°SSE
Pressure: 30.31"   Gusts: NA
Location:  26.2089°N, 97.6849°W
Report Text: KHRL 270827Z 15003KT 6SM BR CLR 09/09 A3031 RMK AO2 $
Loading
Personal Weather Stations






























Interactive Weather Map New forecast layout! Learn more

10-Day Weather Forecast

Advertisements
Track Severe Weather on mobile